June Lake Junction, California
Current Conditions -  °F | °C
As of 11:15 AM on Tuesday 21 Oct 2014 (Local Time) from KMMH Reporting Station
Clear Clear  
Wind Chill: 59°   Ceiling: Unl
Heat Index: 59°   Visibility: 10mi
Dew Point:   Wind: 8mph
Humidity: 13%   Direction: 130°SE
Pressure: 30.12"   Gusts: NA
Location:  37.8196°N, 119.076°W
Report Text: KMMH 211815Z AUTO 13007KT 10SM CLR 15/M14 A3012 RMK AO1
Loading
Personal Weather Stations






























Interactive Weather Map
Tropical Storm Tracking
New forecast layout! Learn more

10-Day Weather Forecast

Advertisements
Track Severe Weather on mobile